createdAt,value
2023-01-23T00:01:29.103Z,3.28
2023-01-23T00:03:57.445Z,3.29
2023-01-23T00:06:26.346Z,3.26
2023-01-23T00:08:56.220Z,3.32
2023-01-23T00:11:26.530Z,3.34
2023-01-23T00:13:54.274Z,3.38
2023-01-23T00:16:23.644Z,3.39
2023-01-23T00:18:52.298Z,3.40
2023-01-23T00:21:22.425Z,3.41
2023-01-23T00:23:52.537Z,3.37
2023-01-23T00:26:25.838Z,3.45
2023-01-23T00:28:54.363Z,3.49
2023-01-23T00:31:24.746Z,3.53
2023-01-23T00:33:55.779Z,3.53
2023-01-23T00:36:24.234Z,3.49
2023-01-23T00:38:51.952Z,3.43
2023-01-23T00:41:20.958Z,3.46
2023-01-23T00:43:50.319Z,3.49
2023-01-23T00:46:17.966Z,3.37
2023-01-23T00:48:45.680Z,3.42
2023-01-23T00:51:13.715Z,3.46
2023-01-23T00:53:41.425Z,3.45
2023-01-23T00:56:09.391Z,3.44
2023-01-23T00:58:39.534Z,3.40
2023-01-23T01:01:07.298Z,3.44
2023-01-23T01:03:35.605Z,3.45
2023-01-23T01:06:03.838Z,3.48
2023-01-23T01:08:31.656Z,3.42
2023-01-23T01:10:59.351Z,3.38
2023-01-23T01:13:27.776Z,3.42
2023-01-23T01:15:56.933Z,3.49
2023-01-23T01:18:25.091Z,3.55
2023-01-23T01:20:52.772Z,3.59
2023-01-23T01:23:21.071Z,3.62
2023-01-23T01:25:48.840Z,3.62
2023-01-23T01:28:16.653Z,3.62
2023-01-23T01:30:44.346Z,3.62
2023-01-23T01:33:13.445Z,3.59
2023-01-23T01:35:42.243Z,3.56
2023-01-23T01:38:10.083Z,3.58
2023-01-23T01:40:38.858Z,3.58
2023-01-23T01:43:08.505Z,3.56
2023-01-23T01:46:09.218Z,3.52
2023-01-23T01:48:43.718Z,3.44
2023-01-23T01:51:17.936Z,3.49
2023-01-23T01:53:50.084Z,3.49
2023-01-23T01:56:19.634Z,3.53
2023-01-23T01:58:50.283Z,3.52
2023-01-23T02:01:18.809Z,3.51
2023-01-23T02:03:49.351Z,3.44
2023-01-23T02:06:17.104Z,3.45
2023-01-23T02:08:52.349Z,3.46
2023-01-23T02:11:20.040Z,3.47
2023-01-23T02:13:47.707Z,3.50
2023-01-23T02:16:19.294Z,3.54
2023-01-23T02:18:51.218Z,3.56
2023-01-23T02:21:25.146Z,3.62
2023-01-23T02:24:04.300Z,3.63
2023-01-23T02:26:36.799Z,3.66
2023-01-23T02:29:05.404Z,3.70
2023-01-23T02:31:33.245Z,3.64
2023-01-23T02:34:01.437Z,3.67
2023-01-23T02:36:30.990Z,3.72
2023-01-23T02:39:04.905Z,3.77
2023-01-23T02:41:37.647Z,3.78
2023-01-23T02:44:10.273Z,3.74
2023-01-23T02:46:37.965Z,3.74
2023-01-23T02:49:05.754Z,3.76
2023-01-23T02:51:33.486Z,3.77
2023-01-23T02:54:01.620Z,3.80
2023-01-23T02:56:29.376Z,3.80
2023-01-23T02:59:16.059Z,3.78
2023-01-23T03:01:43.831Z,3.74
2023-01-23T03:04:11.621Z,3.69
2023-01-23T03:06:39.375Z,3.66
2023-01-23T03:09:10.312Z,3.64
2023-01-23T03:11:39.813Z,3.62
2023-01-23T03:14:10.734Z,3.64
2023-01-23T03:16:39.082Z,3.67
2023-01-23T03:19:09.305Z,3.68
2023-01-23T03:21:40.265Z,3.67
2023-01-23T03:24:09.165Z,3.56
2023-01-23T03:26:39.467Z,3.50
2023-01-23T03:29:26.308Z,3.45
2023-01-23T03:31:54.017Z,3.53
2023-01-23T03:34:25.422Z,3.64
2023-01-23T03:36:53.128Z,3.62
2023-01-23T03:39:38.327Z,3.69
2023-01-23T03:42:06.021Z,3.71
2023-01-23T03:44:35.178Z,3.73
2023-01-23T03:47:03.223Z,3.73
2023-01-23T03:49:31.169Z,3.72
2023-01-23T03:51:58.912Z,3.76
2023-01-23T03:54:26.771Z,3.67
2023-01-23T03:56:55.409Z,3.63
2023-01-23T03:59:23.127Z,3.64
2023-01-23T04:01:52.225Z,3.70
2023-01-23T04:04:19.933Z,3.69
2023-01-23T04:06:47.689Z,3.67
2023-01-23T04:09:15.375Z,3.61
2023-01-23T04:11:43.029Z,3.62
2023-01-23T04:14:10.698Z,3.66
2023-01-23T04:16:38.347Z,3.74
2023-01-23T04:19:07.408Z,3.69
2023-01-23T04:21:35.044Z,3.70
2023-01-23T04:24:02.748Z,3.71
2023-01-23T04:26:30.481Z,3.72
2023-01-23T04:28:58.139Z,3.74
2023-01-23T04:31:25.904Z,3.67
2023-01-23T04:33:53.602Z,3.67
2023-01-23T04:36:22.778Z,3.67
2023-01-23T04:38:50.419Z,3.64
2023-01-23T04:41:21.354Z,3.60
2023-01-23T04:43:49.047Z,3.62
2023-01-23T04:46:16.936Z,3.62
2023-01-23T04:48:44.746Z,3.66
2023-01-23T04:51:12.910Z,3.62
2023-01-23T04:53:41.903Z,3.60
2023-01-23T04:56:09.601Z,3.59
2023-01-23T04:58:37.269Z,3.60
2023-01-23T05:01:06.690Z,3.58
2023-01-23T05:03:35.039Z,3.59
2023-01-23T05:06:02.982Z,3.57
2023-01-23T05:08:30.676Z,3.56
2023-01-23T05:10:59.703Z,3.58
2023-01-23T05:13:27.426Z,3.64
2023-01-23T05:15:55.075Z,3.60
2023-01-23T05:18:22.799Z,3.59
2023-01-23T05:20:50.450Z,3.55
2023-01-23T05:23:18.297Z,3.58
2023-01-23T05:25:46.557Z,3.61
2023-01-23T05:28:15.732Z,3.57
2023-01-23T05:30:43.573Z,3.60
2023-01-23T05:33:11.361Z,3.63
2023-01-23T05:35:40.200Z,3.70
2023-01-23T05:38:07.867Z,3.67
2023-01-23T05:40:35.508Z,3.66
2023-01-23T05:43:03.127Z,3.68
2023-01-23T05:45:32.160Z,3.66
2023-01-23T05:47:59.795Z,3.70
2023-01-23T05:50:27.534Z,3.70
2023-01-23T05:52:55.168Z,3.71
2023-01-23T05:55:22.967Z,3.71
2023-01-23T05:57:50.669Z,3.72
2023-01-23T06:00:19.789Z,3.69
2023-01-23T06:02:49.078Z,3.67
2023-01-23T06:05:16.822Z,3.70
2023-01-23T06:07:44.510Z,3.68
2023-01-23T06:10:12.299Z,3.58
2023-01-23T06:12:39.955Z,3.53
2023-01-23T06:15:08.371Z,3.60
2023-01-23T06:17:36.223Z,3.68
2023-01-23T06:20:06.274Z,3.69
2023-01-23T06:22:33.972Z,3.64
2023-01-23T06:25:01.625Z,3.68
2023-01-23T06:27:29.295Z,3.69
2023-01-23T06:29:56.948Z,3.71
2023-01-23T06:32:24.768Z,3.72
2023-01-23T06:34:52.415Z,3.66
2023-01-23T06:37:21.470Z,3.72
2023-01-23T06:39:49.157Z,3.72
2023-01-23T06:42:16.898Z,3.69
2023-01-23T06:44:44.905Z,3.69
2023-01-23T06:47:12.535Z,3.74
2023-01-23T06:49:40.299Z,3.77
2023-01-23T06:52:07.933Z,3.76
2023-01-23T06:54:37.095Z,3.69
2023-01-23T06:57:04.852Z,3.70
2023-01-23T06:59:33.238Z,3.72
2023-01-23T07:02:01.095Z,3.69
2023-01-23T07:04:28.868Z,3.67
2023-01-23T07:06:56.615Z,3.64
2023-01-23T07:09:24.315Z,3.67
2023-01-23T07:11:53.459Z,3.72
2023-01-23T07:14:21.169Z,3.77
2023-01-23T07:16:49.011Z,3.80
2023-01-23T07:19:16.684Z,3.87
2023-01-23T07:21:44.430Z,3.90
2023-01-23T07:24:12.173Z,3.90
2023-01-23T07:26:39.879Z,3.91
2023-01-23T07:29:09.855Z,3.88
2023-01-23T07:31:37.852Z,3.77
2023-01-23T07:34:05.656Z,3.77
2023-01-23T07:36:33.363Z,3.75
2023-01-23T07:39:01.020Z,3.78
2023-01-23T07:41:28.682Z,3.81
2023-01-23T07:43:56.441Z,3.86
2023-01-23T07:46:26.806Z,3.86
2023-01-23T07:48:56.180Z,3.87
2023-01-23T07:51:23.915Z,3.85
2023-01-23T07:53:51.677Z,3.90
2023-01-23T07:56:19.792Z,3.90
2023-01-23T07:58:51.623Z,3.86
2023-01-23T08:01:20.278Z,3.90
2023-01-23T08:03:49.482Z,3.93
2023-01-23T08:06:17.461Z,3.96
2023-01-23T08:08:45.253Z,3.94
2023-01-23T08:11:13.763Z,3.97
2023-01-23T08:13:41.621Z,4.03
2023-01-23T08:16:12.035Z,4.08
2023-01-23T08:18:41.195Z,4.08
2023-01-23T08:21:11.269Z,4.01
2023-01-23T08:23:40.746Z,3.98
2023-01-23T08:26:09.732Z,3.96
2023-01-23T08:28:37.430Z,3.91
2023-01-23T08:31:07.217Z,3.93
2023-01-23T08:33:35.834Z,3.98
2023-01-23T08:36:04.752Z,4.03
2023-01-23T08:38:33.912Z,4.05
2023-01-23T08:41:03.609Z,4.06
2023-01-23T08:43:31.931Z,4.10
2023-01-23T08:46:00.410Z,4.12
2023-01-23T08:48:29.060Z,4.17
2023-01-23T08:51:01.877Z,4.22
2023-01-23T08:53:30.056Z,4.20
2023-01-23T08:56:02.015Z,4.12
2023-01-23T08:58:29.741Z,4.12
2023-01-23T09:00:57.810Z,4.13
2023-01-23T09:03:26.370Z,4.11
2023-01-23T09:05:54.371Z,4.10
2023-01-23T09:08:22.172Z,4.01
2023-01-23T09:10:49.876Z,4.06
2023-01-23T09:13:19.663Z,4.16
2023-01-23T09:15:47.878Z,4.23
2023-01-23T09:18:15.608Z,4.27
2023-01-23T09:20:43.371Z,4.25
2023-01-23T09:23:11.086Z,4.25
2023-01-23T09:25:39.021Z,4.26
2023-01-23T09:28:06.779Z,4.29
2023-01-23T09:30:35.834Z,4.29
2023-01-23T09:33:03.594Z,4.31
2023-01-23T09:35:32.248Z,4.34
2023-01-23T09:38:04.641Z,4.31
2023-01-23T09:40:35.789Z,4.26
2023-01-23T09:43:13.824Z,4.21
2023-01-23T09:45:48.188Z,4.22
2023-01-23T09:48:22.331Z,4.24
2023-01-23T09:50:57.443Z,4.33
2023-01-23T09:53:31.180Z,4.35
2023-01-23T09:56:04.002Z,4.31
2023-01-23T09:58:38.275Z,4.37
2023-01-23T10:01:12.396Z,4.37
2023-01-23T10:03:48.160Z,4.35
2023-01-23T10:06:23.420Z,4.42
2023-01-23T10:09:05.270Z,4.44
2023-01-23T10:11:42.770Z,4.53
2023-01-23T10:14:28.052Z,4.59
2023-01-23T10:17:07.053Z,4.66
2023-01-23T10:19:46.973Z,4.78
2023-01-23T10:22:29.441Z,4.80
2023-01-23T10:24:59.310Z,4.87
2023-01-23T10:27:34.718Z,4.93
2023-01-23T10:30:05.137Z,4.97
2023-01-23T10:32:52.384Z,5.07
2023-01-23T10:35:23.474Z,5.07
2023-01-23T10:37:57.673Z,5.05
2023-01-23T10:40:39.892Z,5.09
2023-01-23T10:43:13.501Z,5.13
2023-01-23T10:45:42.081Z,5.08
2023-01-23T10:48:42.478Z,5.14
2023-01-23T10:51:31.225Z,5.24
2023-01-23T10:54:31.352Z,5.24
2023-01-23T10:57:02.351Z,5.20
2023-01-23T10:59:34.040Z,5.18
2023-01-23T11:02:18.193Z,5.23
2023-01-23T11:04:49.485Z,5.28
2023-01-23T11:07:18.633Z,5.29
2023-01-23T11:09:48.797Z,5.37
2023-01-23T11:12:19.528Z,5.41
2023-01-23T11:14:47.280Z,5.45
2023-01-23T11:17:18.666Z,5.41
2023-01-23T11:19:49.873Z,5.35
2023-01-23T11:22:33.841Z,5.36
2023-01-23T11:25:24.423Z,5.40
2023-01-23T11:27:58.765Z,5.46
2023-01-23T11:30:35.199Z,5.51
2023-01-23T11:33:12.691Z,5.47
2023-01-23T11:35:52.006Z,5.39
2023-01-23T11:38:30.727Z,5.39
2023-01-23T11:40:58.987Z,5.31
2023-01-23T11:43:26.731Z,5.34
2023-01-23T11:46:19.721Z,5.41
2023-01-23T11:49:01.183Z,5.48
2023-01-23T11:51:37.504Z,5.54
2023-01-23T11:54:21.608Z,5.41
2023-01-23T11:57:03.445Z,5.25
2023-01-23T12:00:06.763Z,5.27
2023-01-23T12:02:56.056Z,5.27
2023-01-23T12:05:49.675Z,5.35
2023-01-23T12:08:32.501Z,5.43
2023-01-23T12:11:12.994Z,5.50
2023-01-23T12:13:57.447Z,5.53
2023-01-23T12:16:34.538Z,5.54
2023-01-23T12:19:15.869Z,5.54
2023-01-23T12:21:48.984Z,5.54
2023-01-23T12:24:33.054Z,5.53
2023-01-23T12:27:08.183Z,5.50
2023-01-23T12:30:00.001Z,5.56
2023-01-23T12:32:44.791Z,5.52
2023-01-23T12:35:30.864Z,5.51
2023-01-23T12:38:14.199Z,5.52
2023-01-23T12:40:46.785Z,5.48
2023-01-23T12:43:19.703Z,5.52
2023-01-23T12:45:52.002Z,5.55
2023-01-23T12:48:28.507Z,5.45
2023-01-23T12:51:02.052Z,5.46
2023-01-23T12:53:36.013Z,5.41
2023-01-23T12:56:08.836Z,5.29
2023-01-23T12:58:41.583Z,5.17
2023-01-23T13:01:24.581Z,5.20
2023-01-23T13:04:10.386Z,5.23
2023-01-23T13:06:58.911Z,5.20
2023-01-23T13:09:36.606Z,5.29
2023-01-23T13:12:21.530Z,5.29
2023-01-23T13:15:12.719Z,5.26
2023-01-23T13:17:46.105Z,5.33
2023-01-23T13:20:44.363Z,5.40
2023-01-23T13:23:33.644Z,5.36
2023-01-23T13:26:28.915Z,5.27
2023-01-23T13:29:02.119Z,5.32
2023-01-23T13:31:42.497Z,5.36
2023-01-23T13:34:39.183Z,5.36
2023-01-23T13:37:47.451Z,5.33
2023-01-23T13:40:19.245Z,5.36
2023-01-23T13:42:46.957Z,5.42
2023-01-23T13:45:50.604Z,5.48
2023-01-23T14:24:22.843Z,5.35
2023-01-23T14:26:52.634Z,5.29
2023-01-23T14:29:27.107Z,5.37
2023-01-23T14:31:55.990Z,5.38
2023-01-23T14:34:25.282Z,5.36
2023-01-23T14:36:56.701Z,5.36
2023-01-23T14:39:29.309Z,5.35
2023-01-23T14:42:02.354Z,5.34
2023-01-23T14:44:35.806Z,5.37
2023-01-23T14:47:05.339Z,5.39
2023-01-23T14:49:37.481Z,5.37
2023-01-23T14:52:07.387Z,5.36
2023-01-23T14:54:37.903Z,5.32
2023-01-23T14:57:10.232Z,5.27
2023-01-23T14:59:40.021Z,5.29
2023-01-23T15:02:27.003Z,5.29
2023-01-23T15:05:18.192Z,5.31
2023-01-23T15:07:47.681Z,5.34
2023-01-23T15:10:20.463Z,5.35
2023-01-23T15:12:51.159Z,5.27
2023-01-23T15:15:21.171Z,5.30
2023-01-23T15:17:49.412Z,5.17
2023-01-23T15:20:32.073Z,5.19
2023-01-23T15:23:14.266Z,5.21
2023-01-23T15:25:43.341Z,5.22
2023-01-23T15:28:39.725Z,5.20
2023-01-23T15:31:22.099Z,5.25
2023-01-23T15:33:49.844Z,5.31
2023-01-23T15:36:26.434Z,5.33
2023-01-23T15:38:54.645Z,5.35
2023-01-23T15:41:40.706Z,5.33
2023-01-23T15:44:14.686Z,5.32
2023-01-23T15:46:42.563Z,5.29
2023-01-23T15:49:23.588Z,5.25
2023-01-23T15:51:52.944Z,5.26
2023-01-23T15:54:27.665Z,5.26
2023-01-23T15:57:07.129Z,5.26
2023-01-23T15:59:36.546Z,5.27
2023-01-23T16:02:04.605Z,5.18
2023-01-23T16:04:32.443Z,5.15
2023-01-23T16:07:04.204Z,5.16
2023-01-23T16:09:35.879Z,5.14
2023-01-23T16:12:05.638Z,5.16
2023-01-23T16:14:33.435Z,5.15
2023-01-23T16:17:15.290Z,5.15
2023-01-23T16:19:44.359Z,5.12
2023-01-23T16:22:15.468Z,5.11
2023-01-23T16:24:43.834Z,5.09
2023-01-23T16:27:18.923Z,5.14
2023-01-23T16:29:49.373Z,5.17
2023-01-23T16:32:17.539Z,5.19
2023-01-23T16:34:45.569Z,5.23
2023-01-23T16:37:16.431Z,5.26
2023-01-23T16:39:45.981Z,5.26
2023-01-23T16:42:22.580Z,5.25
2023-01-23T16:44:50.940Z,5.22
2023-01-23T16:47:18.879Z,5.22
2023-01-23T16:49:52.538Z,5.27
2023-01-23T16:52:23.333Z,5.33
2023-01-23T16:54:53.613Z,5.27
2023-01-23T16:57:23.304Z,5.29
2023-01-23T16:59:51.584Z,5.24
2023-01-23T17:02:22.849Z,5.23
2023-01-23T17:04:50.918Z,5.17
2023-01-23T17:07:20.411Z,5.16
2023-01-23T17:09:49.230Z,5.15
2023-01-23T17:12:19.324Z,5.17
2023-01-23T17:14:49.598Z,5.24
2023-01-23T17:17:23.452Z,5.11
2023-01-23T17:19:51.215Z,5.05
2023-01-23T17:22:24.004Z,5.02
2023-01-23T17:24:51.808Z,5.01
2023-01-23T17:27:19.606Z,4.93
2023-01-23T17:29:49.160Z,4.97
2023-01-23T17:32:25.935Z,5.01
2023-01-23T17:34:53.654Z,5.00
2023-01-23T17:37:24.104Z,4.93
2023-01-23T17:39:51.911Z,4.85
2023-01-23T17:42:19.603Z,4.85
2023-01-23T17:44:48.773Z,4.87
2023-01-23T17:47:17.332Z,4.82
2023-01-23T17:49:47.962Z,4.75
2023-01-23T17:52:15.691Z,4.77
2023-01-23T17:54:43.395Z,4.80
2023-01-23T17:57:11.385Z,4.84
2023-01-23T17:59:39.075Z,4.87
2023-01-23T18:02:24.520Z,4.89
2023-01-23T18:05:00.732Z,4.91
2023-01-23T18:07:28.525Z,4.92
2023-01-23T18:09:56.276Z,4.90
2023-01-23T18:12:31.681Z,4.91
2023-01-23T18:15:11.434Z,4.97
2023-01-23T18:17:54.262Z,4.96
2023-01-23T18:20:25.310Z,4.88
2023-01-23T18:22:53.322Z,4.89
2023-01-23T18:25:24.045Z,4.79
2023-01-23T18:27:55.069Z,4.78
2023-01-23T18:30:44.272Z,4.75
2023-01-23T18:33:33.810Z,4.74
2023-01-23T18:36:18.259Z,4.72
2023-01-23T18:39:11.037Z,4.74
2023-01-23T18:41:43.578Z,4.78
2023-01-23T18:44:17.092Z,4.68
2023-01-23T18:46:45.217Z,4.70
2023-01-23T18:49:27.686Z,4.76
2023-01-23T18:52:05.626Z,4.76
2023-01-23T18:54:42.011Z,4.66
2023-01-23T18:57:23.405Z,4.72
2023-01-23T19:00:02.166Z,4.74
2023-01-23T19:02:36.582Z,4.74
2023-01-23T19:05:23.203Z,4.78
2023-01-23T19:07:51.483Z,4.76
2023-01-23T19:10:21.366Z,4.78
2023-01-23T19:13:01.155Z,4.80
2023-01-23T19:15:34.683Z,4.82
2023-01-23T19:18:13.340Z,4.82
2023-01-23T19:20:48.228Z,4.80
2023-01-23T19:23:28.751Z,4.85
2023-01-23T19:25:56.925Z,4.91
2023-01-23T19:28:25.253Z,4.91
2023-01-23T19:30:53.829Z,4.86
2023-01-23T19:33:22.523Z,4.84
2023-01-23T19:35:54.852Z,4.79
2023-01-23T19:38:23.532Z,4.79
2023-01-23T19:40:51.479Z,4.81
2023-01-23T19:43:19.575Z,4.88
2023-01-23T19:45:47.688Z,4.85
2023-01-23T19:48:15.581Z,4.82
2023-01-23T19:50:44.035Z,4.79
2023-01-23T19:53:14.809Z,4.79
2023-01-23T19:55:42.626Z,4.83
2023-01-23T19:58:10.491Z,4.88
2023-01-23T20:00:38.303Z,4.89
2023-01-23T20:03:06.194Z,4.90
2023-01-23T20:05:34.073Z,4.88
2023-01-23T20:08:02.062Z,4.89
2023-01-23T20:10:31.205Z,4.88
2023-01-23T20:12:59.006Z,4.86
2023-01-23T20:15:27.612Z,4.89
2023-01-23T20:17:55.644Z,4.85
2023-01-23T20:20:24.081Z,4.80
2023-01-23T20:22:51.995Z,4.77
2023-01-23T20:25:20.039Z,4.78
2023-01-23T20:27:49.564Z,4.78
2023-01-23T20:30:19.909Z,4.80
2023-01-23T20:32:47.881Z,4.77
2023-01-23T20:35:15.710Z,4.75
2023-01-23T20:37:43.365Z,4.74
2023-01-23T20:40:12.394Z,4.75
2023-01-23T20:42:40.867Z,4.72
2023-01-23T20:45:10.957Z,4.68
2023-01-23T20:47:38.744Z,4.71
2023-01-23T20:50:07.180Z,4.79
2023-01-23T20:52:52.571Z,4.79
2023-01-23T20:55:20.858Z,4.79
2023-01-23T20:58:06.053Z,4.75
2023-01-23T21:00:35.145Z,4.78
2023-01-23T21:03:02.986Z,4.77
2023-01-23T21:05:30.753Z,4.68
2023-01-23T21:07:58.515Z,4.70
2023-01-23T21:10:27.991Z,4.67
2023-01-23T21:12:55.816Z,4.74
2023-01-23T21:15:23.926Z,4.79
2023-01-23T21:17:53.191Z,4.84
2023-01-23T21:20:21.062Z,4.88
2023-01-23T21:22:55.919Z,4.87
2023-01-23T21:25:25.483Z,4.84
2023-01-23T21:27:53.199Z,4.83
2023-01-23T21:30:21.238Z,4.84
2023-01-23T21:32:50.384Z,4.82
2023-01-23T21:35:19.902Z,4.84
2023-01-23T21:38:00.214Z,4.84
2023-01-23T21:40:27.976Z,4.91
2023-01-23T21:42:55.724Z,4.95
2023-01-23T21:45:23.502Z,4.92
2023-01-23T21:47:51.218Z,4.92
2023-01-23T21:50:24.378Z,4.89
2023-01-23T21:52:52.175Z,4.92
2023-01-23T21:55:20.239Z,4.87
2023-01-23T21:57:48.180Z,4.87
2023-01-23T22:00:33.820Z,4.87
2023-01-23T22:03:01.681Z,4.86
2023-01-23T22:05:30.791Z,4.85
2023-01-23T22:07:58.484Z,4.77
2023-01-23T22:10:26.268Z,4.79
2023-01-23T22:12:53.953Z,4.81
2023-01-23T22:15:21.815Z,4.79
2023-01-23T22:17:49.628Z,4.84
2023-01-23T22:20:18.249Z,4.84
2023-01-23T22:22:47.278Z,4.79
2023-01-23T22:25:14.942Z,4.82
2023-01-23T22:27:42.624Z,4.85
2023-01-23T22:30:11.345Z,4.86
2023-01-23T22:32:39.055Z,4.84
2023-01-23T22:35:09.275Z,4.86
2023-01-23T22:37:38.120Z,4.83
2023-01-23T22:40:08.997Z,4.82
2023-01-23T22:42:37.057Z,4.81
2023-01-23T22:45:05.328Z,4.82
2023-01-23T22:47:33.029Z,4.74
2023-01-23T22:50:00.659Z,4.70
2023-01-23T22:52:28.357Z,4.67
2023-01-23T22:54:56.026Z,4.70
2023-01-23T22:57:25.105Z,4.72
2023-01-23T22:59:52.766Z,4.73
2023-01-23T23:02:20.423Z,4.74
2023-01-23T23:04:49.896Z,4.73
2023-01-23T23:07:17.763Z,4.72
2023-01-23T23:09:46.074Z,4.73
2023-01-23T23:12:14.352Z,4.68
2023-01-23T23:14:43.440Z,4.71
2023-01-23T23:17:11.163Z,4.73
2023-01-23T23:19:38.876Z,4.76
2023-01-23T23:22:07.105Z,4.78
2023-01-23T23:24:34.815Z,4.69
2023-01-23T23:27:02.520Z,4.63
2023-01-23T23:29:30.332Z,4.61
2023-01-23T23:31:59.510Z,4.50
2023-01-23T23:34:27.235Z,4.53
2023-01-23T23:36:54.937Z,4.55
2023-01-23T23:39:22.601Z,4.55
2023-01-23T23:41:50.291Z,4.56
2023-01-23T23:44:17.948Z,4.55
2023-01-23T23:46:45.671Z,4.59
2023-01-23T23:49:18.105Z,4.60
2023-01-23T23:51:45.771Z,4.57
2023-01-23T23:54:13.437Z,4.54
2023-01-23T23:56:41.079Z,4.53
2023-01-23T23:59:08.812Z,4.58
